createdAt,value
2018-11-04T00:00:54.226Z,23.77
2018-11-04T00:05:57.354Z,25.93
2018-11-04T00:11:00.553Z,25.17
2018-11-04T00:16:03.779Z,21.37
2018-11-04T00:21:06.939Z,23.37
2018-11-04T00:26:10.080Z,31.83
2018-11-04T00:31:13.204Z,24.70
2018-11-04T00:36:16.376Z,22.80
2018-11-04T00:41:19.538Z,24.83
2018-11-04T00:46:22.652Z,22.93
2018-11-04T00:51:25.767Z,22.70
2018-11-04T00:56:28.890Z,24.53
2018-11-04T01:01:32.102Z,27.07
2018-11-04T01:06:35.202Z,25.37
2018-11-04T01:11:38.413Z,20.27
2018-11-04T01:16:41.696Z,26.10
2018-11-04T01:21:44.910Z,25.27
2018-11-04T01:26:48.027Z,23.83
2018-11-04T01:31:51.139Z,24.10
2018-11-04T01:36:54.295Z,20.47
2018-11-04T01:41:57.409Z,16.43
2018-11-04T01:47:00.535Z,24.57
2018-11-04T01:52:03.687Z,22.83
2018-11-04T01:57:06.834Z,19.47
2018-11-04T02:02:09.970Z,23.83
2018-11-04T02:07:13.079Z,30.47
2018-11-04T02:12:16.203Z,20.90
2018-11-04T02:17:19.311Z,17.30
2018-11-04T02:22:22.406Z,19.93
2018-11-04T02:27:25.590Z,21.43
2018-11-04T02:32:28.710Z,24.10
2018-11-04T02:37:31.813Z,21.60
2018-11-04T02:42:34.916Z,24.07
2018-11-04T02:47:38.310Z,19.10
2018-11-04T02:52:41.397Z,26.70
2018-11-04T02:57:44.485Z,23.47
2018-11-04T03:02:47.610Z,21.07
2018-11-04T03:07:50.707Z,19.80
2018-11-04T03:12:53.786Z,18.80
2018-11-04T03:17:56.887Z,17.90
2018-11-04T03:23:00.280Z,16.43
2018-11-04T03:28:03.453Z,29.73
2018-11-04T03:33:07.430Z,21.83
2018-11-04T03:38:10.640Z,31.43
2018-11-04T03:43:13.821Z,16.80
2018-11-04T03:48:16.969Z,19.77
2018-11-04T03:53:20.513Z,21.53
2018-11-04T03:58:23.628Z,19.77
2018-11-04T04:03:26.730Z,15.73
2018-11-04T04:08:30.156Z,16.40
2018-11-04T04:13:33.721Z,17.17
2018-11-04T04:18:36.871Z,19.13
2018-11-04T04:23:41.558Z,16.63
2018-11-04T04:28:44.656Z,21.30
2018-11-04T04:33:47.727Z,31.17
2018-11-04T04:38:50.834Z,19.00
2018-11-04T04:43:53.925Z,21.17
2018-11-04T04:48:57.094Z,22.57
2018-11-04T04:54:00.298Z,23.60
2018-11-04T04:59:04.047Z,20.37
2018-11-04T05:04:07.153Z,21.80
2018-11-04T05:09:10.258Z,22.70
2018-11-04T05:14:13.378Z,27.23
2018-11-04T05:19:16.481Z,17.80
2018-11-04T05:24:19.619Z,22.33
2018-11-04T05:29:22.742Z,28.80
2018-11-04T05:34:25.866Z,28.23
2018-11-04T05:39:29.038Z,23.07
2018-11-04T05:44:32.151Z,24.80
2018-11-04T05:49:35.344Z,24.40
2018-11-04T05:54:38.666Z,28.00
2018-11-04T05:59:42.191Z,23.10
2018-11-04T06:04:45.417Z,21.70
2018-11-04T06:09:48.569Z,24.17
2018-11-04T06:14:51.727Z,24.07
2018-11-04T06:19:54.872Z,23.10
2018-11-04T06:24:58.114Z,20.27
2018-11-04T06:30:01.255Z,24.30
2018-11-04T06:35:05.306Z,27.27
2018-11-04T06:40:11.397Z,26.30
2018-11-04T06:45:14.654Z,33.00
2018-11-04T06:50:18.157Z,29.17
2018-11-04T06:55:21.418Z,29.63
2018-11-04T07:00:24.821Z,32.70
2018-11-04T07:05:28.180Z,31.00
2018-11-04T07:10:31.478Z,30.47
2018-11-04T07:15:35.010Z,33.43
2018-11-04T07:20:38.234Z,35.67
2018-11-04T07:25:41.461Z,32.27
2018-11-04T07:30:44.649Z,34.57
2018-11-04T07:35:47.813Z,25.33
2018-11-04T07:40:50.959Z,33.53
2018-11-04T07:45:54.102Z,37.17
2018-11-04T07:50:57.242Z,31.47
2018-11-04T07:56:00.413Z,31.30
2018-11-04T08:01:03.690Z,37.90
2018-11-04T08:06:06.893Z,36.40
2018-11-04T08:11:10.911Z,35.27
2018-11-04T08:16:14.069Z,38.13
2018-11-04T08:21:17.506Z,33.90
2018-11-04T08:26:20.597Z,37.60
2018-11-04T08:31:23.717Z,42.67
2018-11-04T08:36:26.864Z,43.67
2018-11-04T08:41:29.996Z,42.70
2018-11-04T08:46:33.225Z,48.90
2018-11-04T08:51:36.464Z,46.20
2018-11-04T08:56:39.671Z,54.00
2018-11-04T09:01:42.793Z,44.70
2018-11-04T09:06:45.945Z,46.63
2018-11-04T09:11:49.153Z,48.77
2018-11-04T09:16:52.323Z,47.87
2018-11-04T09:21:55.671Z,42.70
2018-11-04T09:26:58.639Z,44.47
2018-11-04T09:32:01.930Z,44.50
2018-11-04T09:37:05.314Z,45.70
2018-11-04T09:42:08.471Z,42.77
2018-11-04T09:47:11.702Z,41.17
2018-11-04T09:52:14.814Z,42.30
2018-11-04T09:57:17.950Z,39.47
2018-11-04T10:02:21.069Z,52.10
2018-11-04T10:07:24.206Z,41.47
2018-11-04T10:12:27.356Z,49.70
2018-11-04T10:17:30.474Z,42.20
2018-11-04T10:22:33.699Z,43.03
2018-11-04T10:27:37.283Z,46.27
2018-11-04T10:32:40.540Z,35.77
2018-11-04T10:37:43.712Z,38.43
2018-11-04T10:42:46.904Z,44.23
2018-11-04T10:47:50.045Z,45.23
2018-11-04T10:52:53.208Z,37.53
2018-11-04T10:57:59.129Z,39.10
2018-11-04T11:03:02.489Z,47.23
2018-11-04T11:08:05.808Z,36.73
2018-11-04T11:13:08.958Z,38.97
2018-11-04T11:18:12.082Z,38.97
2018-11-04T11:23:15.319Z,41.07
2018-11-04T11:28:18.391Z,42.00
2018-11-04T11:33:21.546Z,39.50
2018-11-04T11:38:24.737Z,43.23
2018-11-04T11:43:27.893Z,40.83
2018-11-04T11:48:31.390Z,41.07
2018-11-04T11:53:34.730Z,51.33
2018-11-04T11:58:38.128Z,38.40
2018-11-04T12:03:41.889Z,43.53
2018-11-04T12:08:46.595Z,38.03
2018-11-04T12:13:49.831Z,44.50
2018-11-04T12:18:53.010Z,34.83
2018-11-04T12:23:56.147Z,43.43
2018-11-04T12:28:59.278Z,49.27
2018-11-04T12:34:02.414Z,40.77
2018-11-04T12:39:08.608Z,39.70
2018-11-04T12:44:11.920Z,45.27
2018-11-04T12:49:15.191Z,50.23
2018-11-04T12:54:18.410Z,41.27
2018-11-04T12:59:21.750Z,42.53
2018-11-04T13:04:25.038Z,44.10
2018-11-04T13:09:28.229Z,39.20
2018-11-04T13:14:31.465Z,47.83
2018-11-04T13:19:34.700Z,35.63
2018-11-04T13:24:37.910Z,43.23
2018-11-04T13:29:41.265Z,48.57
2018-11-04T13:34:44.465Z,39.23
2018-11-04T13:39:47.750Z,38.53
2018-11-04T13:44:52.161Z,39.27
2018-11-04T13:49:55.292Z,38.77
2018-11-04T13:54:58.433Z,38.37
2018-11-04T14:00:01.647Z,39.10
2018-11-04T14:05:05.889Z,41.87
2018-11-04T14:10:10.514Z,37.10
2018-11-04T14:15:14.152Z,38.83
2018-11-04T14:20:17.293Z,38.33
2018-11-04T14:25:20.477Z,38.47
2018-11-04T14:30:23.618Z,42.53
2018-11-04T14:35:26.831Z,39.47
2018-11-04T14:40:30.753Z,37.90
2018-11-04T14:45:35.588Z,36.53
2018-11-04T14:50:39.710Z,42.30
2018-11-04T14:55:43.674Z,36.73
2018-11-04T15:00:47.391Z,36.60
2018-11-04T15:05:50.532Z,33.37
2018-11-04T15:10:53.714Z,36.70
2018-11-04T15:15:56.899Z,37.60
2018-11-04T15:21:00.090Z,37.20
2018-11-04T15:26:03.321Z,33.40
2018-11-04T15:31:06.516Z,35.80
2018-11-04T15:36:09.691Z,44.90
2018-11-04T15:41:12.805Z,36.67
2018-11-04T15:46:16.006Z,45.93
2018-11-04T15:51:21.051Z,37.00
2018-11-04T15:56:26.610Z,34.97
2018-11-04T16:01:31.615Z,49.53
2018-11-04T16:06:36.278Z,38.67
2018-11-04T16:11:40.969Z,39.30
2018-11-04T16:16:45.740Z,53.73
2018-11-04T16:21:50.077Z,50.83
2018-11-04T16:26:53.436Z,48.57
2018-11-04T16:31:57.202Z,49.30
2018-11-04T16:37:00.327Z,73.70
2018-11-04T16:42:03.490Z,38.93
2018-11-04T16:47:06.634Z,45.63
2018-11-04T16:52:09.806Z,80.87
2018-11-04T16:57:12.982Z,52.40
2018-11-04T17:02:16.196Z,70.07
2018-11-04T17:07:19.370Z,96.23
2018-11-04T17:12:22.542Z,101.57
2018-11-04T17:17:25.674Z,92.57
2018-11-04T17:22:28.961Z,38.23
2018-11-04T17:27:33.210Z,34.13
2018-11-04T17:32:37.273Z,23.53
2018-11-04T17:37:41.303Z,28.93
2018-11-04T17:42:44.697Z,23.90
2018-11-04T17:47:47.858Z,26.67
2018-11-04T17:52:51.110Z,25.07
2018-11-04T17:57:54.275Z,27.77
2018-11-04T18:02:57.660Z,24.23
2018-11-04T18:08:01.917Z,30.03
2018-11-04T18:13:05.274Z,23.63
2018-11-04T18:18:08.482Z,22.87
2018-11-04T18:23:11.618Z,21.57
2018-11-04T18:28:14.777Z,23.30
2018-11-04T18:33:17.918Z,23.23
2018-11-04T18:38:21.081Z,17.10
2018-11-04T18:43:24.380Z,26.57
2018-11-04T18:48:27.688Z,16.00
2018-11-04T18:53:31.083Z,16.47
2018-11-04T18:58:34.328Z,13.40
2018-11-04T19:03:37.666Z,14.60
2018-11-04T19:08:42.100Z,13.40
2018-11-04T19:13:47.761Z,18.70
2018-11-04T19:18:52.498Z,14.43
2018-11-04T19:23:57.507Z,17.90
2018-11-04T19:29:02.377Z,14.37
2018-11-04T19:34:07.377Z,13.57
2018-11-04T19:39:12.776Z,18.60
2018-11-04T19:44:16.816Z,16.30
2018-11-04T19:49:21.451Z,17.10
2018-11-04T19:54:26.801Z,12.37
2018-11-04T19:59:31.717Z,19.33
2018-11-04T20:04:35.248Z,17.40
2018-11-04T20:09:38.430Z,16.20
2018-11-04T20:14:41.658Z,15.40
2018-11-04T20:19:50.529Z,15.10
2018-11-04T20:25:00.131Z,11.30
2018-11-04T20:30:04.764Z,15.53
2018-11-04T20:35:08.529Z,14.87
2018-11-04T20:40:17.850Z,16.33
2018-11-04T20:45:21.776Z,16.90
2018-11-04T20:50:31.658Z,16.00
2018-11-04T20:55:41.116Z,15.67
2018-11-04T21:00:44.806Z,16.67
2018-11-04T21:05:48.023Z,27.93
2018-11-04T21:10:51.966Z,20.30
2018-11-04T21:15:55.435Z,16.80
2018-11-04T21:20:58.501Z,15.63
2018-11-04T21:26:01.654Z,17.73
2018-11-04T21:31:04.902Z,22.20
2018-11-04T21:36:08.077Z,20.07
2018-11-04T21:41:11.286Z,18.63
2018-11-04T21:46:14.773Z,23.77
2018-11-04T21:51:18.135Z,17.83
2018-11-04T21:56:21.441Z,22.47
2018-11-04T22:01:24.509Z,23.37
2018-11-04T22:06:27.677Z,25.20
2018-11-04T22:11:30.817Z,21.07
2018-11-04T22:16:34.082Z,26.43
2018-11-04T22:21:37.570Z,18.67
2018-11-04T22:26:41.069Z,20.03
2018-11-04T22:31:44.419Z,16.40
2018-11-04T22:36:47.687Z,19.73
2018-11-04T22:41:50.846Z,19.10
2018-11-04T22:46:54.035Z,21.70
2018-11-04T22:51:57.211Z,17.70
2018-11-04T22:57:00.441Z,18.07
2018-11-04T23:02:04.797Z,17.87
2018-11-04T23:07:08.041Z,18.43
2018-11-04T23:12:11.329Z,18.87
2018-11-04T23:17:14.555Z,21.43
2018-11-04T23:22:17.876Z,17.87
2018-11-04T23:27:21.107Z,18.27
2018-11-04T23:32:24.288Z,18.70
2018-11-04T23:37:27.497Z,17.20
2018-11-04T23:42:30.684Z,26.97
2018-11-04T23:47:33.835Z,16.23
2018-11-04T23:52:37.035Z,20.60
2018-11-04T23:57:40.173Z,21.90
